createdAt,value
2019-03-18T00:00:33.264Z,2.85
2019-03-18T00:01:44.593Z,2.33
2019-03-18T00:02:50.322Z,1.85
2019-03-18T00:03:57.765Z,1.52
2019-03-18T00:05:04.188Z,1.87
2019-03-18T00:06:13.877Z,2.17
2019-03-18T00:07:19.716Z,1.82
2019-03-18T00:08:28.319Z,1.98
2019-03-18T00:09:39.882Z,1.35
2019-03-18T00:10:40.869Z,1.77
2019-03-18T00:11:49.036Z,1.98
2019-03-18T00:12:54.308Z,2.52
2019-03-18T00:14:02.554Z,2.00
2019-03-18T00:15:09.781Z,2.37
2019-03-18T00:16:18.406Z,1.40
2019-03-18T00:17:23.966Z,2.00
2019-03-18T00:18:36.391Z,2.55
2019-03-18T00:19:38.264Z,1.82
2019-03-18T00:20:42.567Z,1.90
2019-03-18T00:21:48.432Z,1.72
2019-03-18T00:22:52.813Z,1.98
2019-03-18T00:23:58.213Z,1.70
2019-03-18T00:25:05.615Z,1.92
2019-03-18T00:26:15.720Z,1.95
2019-03-18T00:27:26.948Z,2.40
2019-03-18T00:28:34.455Z,1.98
2019-03-18T00:29:41.913Z,2.20
2019-03-18T00:30:46.243Z,1.95
2019-03-18T00:31:53.595Z,1.95
2019-03-18T00:32:58.020Z,1.85
2019-03-18T00:34:05.285Z,4.85
2019-03-18T00:35:16.297Z,2.08
2019-03-18T00:36:20.653Z,1.60
2019-03-18T00:37:24.982Z,2.35
2019-03-18T00:38:29.394Z,4.85
2019-03-18T00:39:45.503Z,1.67
2019-03-18T00:40:49.211Z,2.15
2019-03-18T00:41:56.260Z,2.62
2019-03-18T00:43:07.038Z,1.15
2019-03-18T00:44:11.242Z,2.45
2019-03-18T00:45:17.086Z,2.12
2019-03-18T00:46:21.353Z,1.67
2019-03-18T00:47:29.465Z,1.77
2019-03-18T00:48:39.277Z,1.75
2019-03-18T00:49:42.810Z,1.95
2019-03-18T00:50:50.102Z,1.37
2019-03-18T00:51:57.125Z,1.27
2019-03-18T00:53:03.284Z,1.98
2019-03-18T00:54:09.147Z,1.45
2019-03-18T00:55:17.600Z,1.70
2019-03-18T00:56:20.608Z,1.67
2019-03-18T00:57:27.956Z,2.72
2019-03-18T00:58:33.953Z,1.65
2019-03-18T00:59:39.562Z,1.32
2019-03-18T01:00:43.891Z,2.12
2019-03-18T01:01:50.556Z,1.90
2019-03-18T01:03:19.977Z,2.47
2019-03-18T01:04:25.848Z,1.75
2019-03-18T01:05:25.514Z,1.45
2019-03-18T01:06:31.269Z,1.40
2019-03-18T01:07:37.138Z,2.00
2019-03-18T01:08:41.384Z,3.10
2019-03-18T01:09:47.189Z,2.62
2019-03-18T01:10:51.615Z,3.35
2019-03-18T01:11:59.357Z,2.95
2019-03-18T01:13:11.829Z,2.75
2019-03-18T01:14:12.792Z,3.83
2019-03-18T01:15:27.802Z,3.87
2019-03-18T01:16:33.894Z,1.95
2019-03-18T01:17:41.674Z,2.55
2019-03-18T01:18:49.571Z,2.25
2019-03-18T01:19:58.949Z,2.17
2019-03-18T01:21:05.745Z,2.00
2019-03-18T01:22:12.902Z,1.95
2019-03-18T01:23:34.959Z,1.95
2019-03-18T01:24:41.640Z,3.17
2019-03-18T01:25:56.229Z,1.80
2019-03-18T01:27:16.826Z,0.90
2019-03-18T01:28:55.951Z,1.30
2019-03-18T01:30:03.880Z,1.40
2019-03-18T01:30:55.570Z,3.25
2019-03-18T01:32:29.814Z,1.60
2019-03-18T01:33:32.669Z,0.90
2019-03-18T01:36:01.390Z,1.30
2019-03-18T01:36:02.344Z,2.37
2019-03-18T01:40:04.528Z,1.85
2019-03-18T01:41:16.017Z,2.72
2019-03-18T01:42:38.585Z,1.57
2019-03-18T01:43:38.388Z,0.90
2019-03-18T01:44:45.164Z,1.67
2019-03-18T01:45:58.778Z,0.90
2019-03-18T01:47:01.975Z,1.12
2019-03-18T01:48:26.246Z,1.22
2019-03-18T01:49:38.696Z,1.40
2019-03-18T01:50:47.022Z,2.00
2019-03-18T01:51:53.241Z,1.95
2019-03-18T01:56:49.841Z,1.17
2019-03-18T01:57:23.215Z,1.02
2019-03-18T01:58:35.598Z,1.05
2019-03-18T01:59:53.854Z,0.85
2019-03-18T02:04:05.562Z,0.95
2019-03-18T02:07:16.763Z,1.20
2019-03-18T02:07:25.782Z,2.33
2019-03-18T02:08:04.610Z,1.67
2019-03-18T02:08:49.498Z,0.60
2019-03-18T02:09:53.846Z,1.57
2019-03-18T02:12:36.712Z,1.67
2019-03-18T02:13:32.004Z,1.12
2019-03-18T02:14:37.842Z,1.95
2019-03-18T02:15:53.167Z,1.35
2019-03-18T02:16:53.238Z,1.10
2019-03-18T02:17:57.419Z,1.40
2019-03-18T02:19:06.981Z,2.90
2019-03-18T02:20:19.187Z,1.20
2019-03-18T02:21:22.126Z,0.85
2019-03-18T02:22:32.286Z,2.90
2019-03-18T02:23:37.904Z,1.98
2019-03-18T02:24:43.656Z,1.47
2019-03-18T02:25:47.962Z,2.05
2019-03-18T02:26:53.811Z,0.95
2019-03-18T02:27:59.193Z,3.20
2019-03-18T02:29:04.983Z,1.05
2019-03-18T02:30:15.149Z,1.30
2019-03-18T02:31:21.384Z,1.15
2019-03-18T02:32:39.923Z,2.02
2019-03-18T02:33:31.345Z,1.25
2019-03-18T02:34:38.539Z,2.08
2019-03-18T02:35:42.063Z,2.02
2019-03-18T02:36:46.287Z,5.10
2019-03-18T02:37:50.363Z,1.40
2019-03-18T02:38:56.275Z,2.80
2019-03-18T02:40:02.221Z,1.45
2019-03-18T02:41:06.570Z,1.95
2019-03-18T02:42:12.087Z,3.47
2019-03-18T02:43:17.467Z,1.20
2019-03-18T02:44:24.334Z,4.85
2019-03-18T02:45:35.425Z,2.25
2019-03-18T02:46:39.765Z,2.17
2019-03-18T02:47:47.525Z,4.50
2019-03-18T02:48:51.922Z,3.35
2019-03-18T02:50:10.099Z,2.25
2019-03-18T02:51:17.208Z,3.20
2019-03-18T02:52:21.745Z,2.02
2019-03-18T02:53:35.795Z,3.52
2019-03-18T02:54:36.358Z,3.70
2019-03-18T02:55:45.425Z,4.60
2019-03-18T02:56:52.240Z,2.98
2019-03-18T02:58:01.089Z,3.10
2019-03-18T02:59:09.099Z,3.67
2019-03-18T03:00:16.773Z,4.15
2019-03-18T03:01:24.139Z,4.33
2019-03-18T03:02:32.909Z,3.95
2019-03-18T03:03:54.135Z,5.25
2019-03-18T03:04:59.204Z,5.37
2019-03-18T03:06:01.778Z,3.75
2019-03-18T03:07:11.283Z,3.92
2019-03-18T03:08:30.863Z,4.55
2019-03-18T03:09:32.243Z,4.03
2019-03-18T03:10:34.809Z,3.45
2019-03-18T03:11:40.824Z,3.15
2019-03-18T03:12:48.430Z,4.80
2019-03-18T03:13:52.741Z,3.98
2019-03-18T03:14:59.943Z,4.83
2019-03-18T03:16:27.165Z,3.75
2019-03-18T03:17:13.431Z,4.55
2019-03-18T03:18:28.622Z,2.70
2019-03-18T03:19:32.152Z,5.28
2019-03-18T03:20:37.910Z,4.17
2019-03-18T03:21:44.975Z,4.05
2019-03-18T03:22:50.930Z,3.55
2019-03-18T03:23:57.840Z,3.60
2019-03-18T03:25:03.701Z,4.35
2019-03-18T03:26:09.540Z,3.60
2019-03-18T03:27:17.633Z,3.95
2019-03-18T03:28:24.145Z,2.77
2019-03-18T03:29:29.784Z,3.90
2019-03-18T03:30:36.766Z,4.45
2019-03-18T03:31:46.255Z,4.42
2019-03-18T03:32:52.995Z,3.45
2019-03-18T03:34:04.917Z,4.12
2019-03-18T03:35:14.790Z,3.22
2019-03-18T03:36:22.254Z,3.47
2019-03-18T03:37:27.903Z,3.37
2019-03-18T03:38:38.058Z,4.10
2019-03-18T03:39:45.525Z,3.72
2019-03-18T03:40:54.255Z,4.22
2019-03-18T03:42:02.051Z,3.62
2019-03-18T03:43:22.248Z,2.47
2019-03-18T03:44:26.560Z,2.50
2019-03-18T03:45:35.223Z,5.62
2019-03-18T03:46:59.444Z,3.45
2019-03-18T03:47:54.865Z,3.72
2019-03-18T03:49:08.753Z,3.25
2019-03-18T03:50:35.064Z,2.60
2019-03-18T03:51:50.671Z,2.77
2019-03-18T03:52:59.473Z,4.47
2019-03-18T03:54:13.934Z,3.42
2019-03-18T03:55:35.795Z,6.47
2019-03-18T03:56:48.326Z,4.35
2019-03-18T03:58:41.712Z,3.58
2019-03-18T03:59:31.466Z,3.37
2019-03-18T04:00:28.382Z,3.12
2019-03-18T04:01:34.439Z,3.47
2019-03-18T04:02:55.647Z,4.03
2019-03-18T04:03:56.909Z,3.33
2019-03-18T04:05:10.422Z,4.10
2019-03-18T04:06:23.196Z,2.50
2019-03-18T04:07:37.255Z,3.83
2019-03-18T04:08:42.525Z,6.03
2019-03-18T04:10:04.476Z,2.85
2019-03-18T04:11:09.072Z,3.80
2019-03-18T04:12:13.077Z,3.95
2019-03-18T04:13:20.162Z,4.33
2019-03-18T04:14:24.506Z,3.52
2019-03-18T04:15:28.805Z,5.92
2019-03-18T04:16:34.529Z,4.30
2019-03-18T04:17:38.765Z,9.23
2019-03-18T04:18:52.745Z,4.12
2019-03-18T04:19:56.240Z,4.83
2019-03-18T04:21:00.558Z,4.45
2019-03-18T04:22:07.823Z,4.80
2019-03-18T04:23:12.019Z,4.42
2019-03-18T04:24:16.673Z,5.15
2019-03-18T04:25:25.077Z,4.17
2019-03-18T04:26:33.296Z,3.62
2019-03-18T04:27:42.445Z,3.30
2019-03-18T04:28:50.185Z,3.80
2019-03-18T04:29:58.661Z,2.70
2019-03-18T04:31:05.023Z,4.70
2019-03-18T04:32:13.827Z,5.65
2019-03-18T04:33:17.976Z,4.70
2019-03-18T04:34:26.982Z,3.33
2019-03-18T04:35:32.690Z,4.25
2019-03-18T04:36:38.468Z,3.12
2019-03-18T04:37:42.763Z,4.12
2019-03-18T04:38:57.502Z,4.45
2019-03-18T04:39:55.993Z,3.22
2019-03-18T04:41:09.756Z,4.80
2019-03-18T04:42:23.563Z,3.33
2019-03-18T04:43:30.527Z,3.77
2019-03-18T04:44:44.163Z,3.45
2019-03-18T04:45:45.397Z,4.08
2019-03-18T04:47:20.103Z,5.20
2019-03-18T04:48:08.618Z,4.45
2019-03-18T04:49:17.875Z,4.53
2019-03-18T04:50:28.876Z,4.45
2019-03-18T04:51:35.578Z,4.30
2019-03-18T04:52:41.530Z,3.87
2019-03-18T04:53:52.621Z,5.87
2019-03-18T04:55:04.501Z,4.33
2019-03-18T04:57:18.125Z,4.90
2019-03-18T04:58:25.403Z,3.72
2019-03-18T04:59:30.748Z,5.03
2019-03-18T05:00:48.798Z,4.95
2019-03-18T05:02:06.211Z,4.20
2019-03-18T05:03:14.995Z,4.60
2019-03-18T05:06:07.246Z,6.78
2019-03-18T05:07:29.160Z,4.20
2019-03-18T05:10:19.638Z,6.70
2019-03-18T05:11:35.548Z,5.58
2019-03-18T05:12:52.861Z,4.87
2019-03-18T05:14:17.652Z,4.80
2019-03-18T05:15:19.979Z,4.80
2019-03-18T05:16:28.153Z,6.03
2019-03-18T05:17:42.556Z,6.70
2019-03-18T05:19:02.513Z,7.05
2019-03-18T05:20:41.045Z,7.65
2019-03-18T05:24:44.982Z,6.65
2019-03-18T05:25:52.258Z,6.17
2019-03-18T05:26:53.574Z,7.92
2019-03-18T05:28:05.440Z,7.00
2019-03-18T05:29:10.014Z,6.30
2019-03-18T05:31:09.848Z,6.95
2019-03-18T05:39:17.381Z,7.28
2019-03-18T05:42:13.817Z,9.33
2019-03-18T05:43:17.972Z,10.48
2019-03-18T05:45:52.734Z,10.10
2019-03-18T05:47:00.027Z,9.30
2019-03-18T05:48:06.536Z,10.03
2019-03-18T05:49:10.914Z,10.30
2019-03-18T05:50:20.163Z,8.05
2019-03-18T05:51:27.224Z,8.93
2019-03-18T05:52:37.374Z,8.45
2019-03-18T05:55:20.811Z,10.55
2019-03-18T05:56:31.181Z,7.83
2019-03-18T05:58:46.819Z,9.95
2019-03-18T06:00:06.167Z,9.83
2019-03-18T06:02:10.228Z,11.53
2019-03-18T06:02:31.603Z,8.90
2019-03-18T06:03:54.397Z,9.18
2019-03-18T06:05:04.911Z,9.08
2019-03-18T06:06:12.175Z,10.72
2019-03-18T06:07:56.521Z,10.30
2019-03-18T06:08:43.555Z,10.55
2019-03-18T06:11:40.778Z,8.05
2019-03-18T06:12:28.297Z,8.20
2019-03-18T06:13:37.320Z,10.00
2019-03-18T06:14:43.965Z,9.93
2019-03-18T06:16:01.003Z,10.03
2019-03-18T06:17:10.659Z,10.08
2019-03-18T06:18:15.665Z,9.70
2019-03-18T06:19:32.455Z,9.28
2019-03-18T06:20:39.921Z,7.65
2019-03-18T06:21:45.445Z,13.13
2019-03-18T06:22:52.660Z,9.53
2019-03-18T06:24:00.015Z,11.28
2019-03-18T06:25:11.143Z,8.73
2019-03-18T06:26:29.921Z,10.03
2019-03-18T06:27:33.644Z,10.58
2019-03-18T06:28:37.885Z,9.48
2019-03-18T06:29:44.609Z,7.58
2019-03-18T06:30:52.995Z,11.35
2019-03-18T06:32:04.155Z,7.53
2019-03-18T06:33:10.804Z,7.83
2019-03-18T06:34:53.375Z,9.98
2019-03-18T06:35:28.648Z,8.58
2019-03-18T06:36:49.688Z,8.88
2019-03-18T06:37:43.081Z,9.48
2019-03-18T06:38:59.855Z,7.78
2019-03-18T06:40:05.643Z,9.85
2019-03-18T06:41:00.763Z,8.30
2019-03-18T06:42:05.161Z,9.03
2019-03-18T06:43:10.535Z,10.60
2019-03-18T06:44:16.323Z,10.70
2019-03-18T06:45:20.483Z,11.83
2019-03-18T06:46:24.854Z,9.45
2019-03-18T06:47:28.992Z,9.18
2019-03-18T06:48:33.215Z,8.18
2019-03-18T06:49:44.620Z,8.80
2019-03-18T06:50:56.189Z,11.68
2019-03-18T06:52:09.333Z,9.63
2019-03-18T06:53:15.118Z,9.93
2019-03-18T06:54:40.069Z,9.13
2019-03-18T06:55:51.811Z,8.83
2019-03-18T06:57:11.905Z,9.73
2019-03-18T06:58:06.754Z,8.28
2019-03-18T06:59:22.467Z,7.95
2019-03-18T07:01:23.803Z,7.50
2019-03-18T07:01:42.790Z,8.50
2019-03-18T07:02:47.159Z,8.68
2019-03-18T07:03:54.170Z,9.08
2019-03-18T07:05:11.677Z,8.25
2019-03-18T07:06:15.341Z,9.48
2019-03-18T07:07:33.201Z,9.38
2019-03-18T07:08:41.268Z,9.10
2019-03-18T07:09:54.438Z,11.73
2019-03-18T07:11:09.644Z,14.07
2019-03-18T07:13:42.847Z,10.48
2019-03-18T07:14:47.890Z,9.55
2019-03-18T07:15:52.145Z,11.78
2019-03-18T07:17:02.582Z,9.65
2019-03-18T07:21:34.200Z,10.45
2019-03-18T07:26:08.190Z,7.85
2019-03-18T07:26:36.003Z,8.95
2019-03-18T07:28:27.073Z,8.70
2019-03-18T07:29:35.354Z,8.10
2019-03-18T07:30:55.786Z,7.33
2019-03-18T07:32:02.464Z,8.25
2019-03-18T07:34:26.413Z,9.25
2019-03-18T07:35:35.987Z,9.98
2019-03-18T07:36:41.079Z,8.93
2019-03-18T07:37:58.773Z,8.45
2019-03-18T07:39:41.729Z,10.03
2019-03-18T07:42:11.574Z,14.45
2019-03-18T07:43:47.884Z,9.05
2019-03-18T07:44:39.027Z,21.02
2019-03-18T07:45:46.262Z,26.57
2019-03-18T07:47:00.132Z,19.10
2019-03-18T07:48:14.697Z,21.82
2019-03-18T07:49:13.518Z,17.55
2019-03-18T07:50:43.418Z,34.43
2019-03-18T07:51:49.128Z,13.53
2019-03-18T07:53:01.117Z,13.30
2019-03-18T07:54:18.749Z,17.57
2019-03-18T07:57:05.949Z,8.18
2019-03-18T07:58:12.452Z,8.75
2019-03-18T07:59:12.987Z,8.90
2019-03-18T08:00:22.009Z,12.88
2019-03-18T08:01:34.547Z,11.80
2019-03-18T08:02:51.705Z,8.33
2019-03-18T08:04:12.280Z,11.18
2019-03-18T08:05:32.932Z,7.65
2019-03-18T08:06:51.046Z,10.10
2019-03-18T08:08:00.797Z,11.53
2019-03-18T08:08:48.078Z,9.00
2019-03-18T08:10:01.531Z,7.83
2019-03-18T08:11:13.073Z,10.70
2019-03-18T08:12:30.120Z,13.15
2019-03-18T08:13:49.651Z,19.15
2019-03-18T08:15:59.723Z,16.35
2019-03-18T08:24:45.827Z,8.70
2019-03-18T08:25:37.339Z,8.00
2019-03-18T08:26:44.438Z,6.85
2019-03-18T08:30:15.151Z,16.97
2019-03-18T08:31:51.235Z,8.43
2019-03-18T08:32:52.086Z,8.65
2019-03-18T08:33:52.681Z,8.28
2019-03-18T08:34:59.561Z,13.10
2019-03-18T08:36:05.053Z,7.20
2019-03-18T08:37:12.157Z,11.22
2019-03-18T08:38:20.381Z,16.40
2019-03-18T08:39:24.748Z,10.63
2019-03-18T08:40:34.135Z,9.63
2019-03-18T08:41:36.696Z,10.72
2019-03-18T08:42:44.486Z,14.78
2019-03-18T08:43:50.297Z,9.10
2019-03-18T08:44:55.721Z,23.38
2019-03-18T08:45:59.925Z,19.70
2019-03-18T08:47:07.147Z,21.15
2019-03-18T08:48:11.557Z,28.90
2019-03-18T08:49:17.268Z,11.53
2019-03-18T08:50:23.052Z,30.10
2019-03-18T08:51:30.481Z,22.82
2019-03-18T08:52:43.192Z,8.68
2019-03-18T08:53:42.390Z,16.77
2019-03-18T08:54:46.472Z,12.00
2019-03-18T08:55:52.426Z,16.23
2019-03-18T08:56:58.940Z,9.08
2019-03-18T08:58:03.267Z,13.85
2019-03-18T08:59:15.485Z,15.13
2019-03-18T09:00:17.509Z,8.83
2019-03-18T09:01:24.568Z,7.30
2019-03-18T09:02:34.552Z,6.05
2019-03-18T09:03:40.234Z,8.43
2019-03-18T09:04:47.691Z,17.92
2019-03-18T09:05:59.206Z,32.53
2019-03-18T09:07:08.096Z,11.10
2019-03-18T09:08:21.192Z,9.38
2019-03-18T09:09:29.072Z,7.80
2019-03-18T09:10:40.477Z,7.45
2019-03-18T09:11:45.695Z,17.32
2019-03-18T09:12:51.446Z,21.62
2019-03-18T09:13:57.072Z,4.62
2019-03-18T09:15:05.157Z,6.83
2019-03-18T09:16:13.894Z,7.28
2019-03-18T09:17:26.797Z,7.45
2019-03-18T09:18:28.650Z,7.08
2019-03-18T09:19:35.216Z,8.20
2019-03-18T09:22:02.807Z,10.88
2019-03-18T09:23:11.559Z,14.05
2019-03-18T09:24:18.726Z,13.90
2019-03-18T09:25:23.147Z,19.67
2019-03-18T09:26:30.656Z,10.18
2019-03-18T09:27:38.825Z,17.95
2019-03-18T09:28:58.270Z,13.98
2019-03-18T09:29:52.587Z,12.68
2019-03-18T09:30:59.953Z,14.35
2019-03-18T09:32:08.145Z,10.68
2019-03-18T09:33:19.413Z,13.95
2019-03-18T09:34:37.129Z,15.28
2019-03-18T09:35:41.359Z,15.00
2019-03-18T09:36:48.430Z,8.45
2019-03-18T09:37:54.126Z,6.95
2019-03-18T09:38:58.406Z,10.32
2019-03-18T09:40:10.935Z,5.92
2019-03-18T09:41:15.298Z,16.87
2019-03-18T09:42:24.565Z,8.98
2019-03-18T09:43:29.780Z,10.98
2019-03-18T09:44:36.453Z,4.78
2019-03-18T09:45:40.786Z,3.95
2019-03-18T09:46:55.357Z,7.67
2019-03-18T09:48:08.676Z,5.00
2019-03-18T09:49:20.913Z,7.53
2019-03-18T09:50:21.794Z,7.55
2019-03-18T09:51:29.939Z,4.70
2019-03-18T09:52:33.546Z,6.00
2019-03-18T09:53:42.524Z,5.10
2019-03-18T09:54:49.024Z,7.03
2019-03-18T09:56:05.830Z,5.58
2019-03-18T09:57:08.549Z,9.88
2019-03-18T09:58:23.969Z,4.62
2019-03-18T09:59:25.841Z,10.40
2019-03-18T10:00:32.063Z,6.10
2019-03-18T10:01:37.296Z,7.62
2019-03-18T10:02:43.070Z,9.53
2019-03-18T10:03:53.204Z,5.05
2019-03-18T10:04:58.572Z,12.45
2019-03-18T10:06:06.266Z,5.30
2019-03-18T10:07:12.077Z,7.60
2019-03-18T10:08:17.509Z,5.72
2019-03-18T10:09:25.501Z,10.03
2019-03-18T10:10:34.484Z,5.65
2019-03-18T10:11:40.545Z,7.45
2019-03-18T10:12:46.122Z,6.85
2019-03-18T10:13:54.177Z,10.32
2019-03-18T10:15:00.446Z,5.72
2019-03-18T10:16:08.462Z,4.75
2019-03-18T10:17:14.396Z,8.03
2019-03-18T10:18:24.433Z,8.43
2019-03-18T10:19:35.569Z,4.78
2019-03-18T10:21:51.710Z,7.28
2019-03-18T10:22:55.805Z,5.05
2019-03-18T10:24:01.551Z,5.50
2019-03-18T10:25:08.889Z,8.40
2019-03-18T10:26:13.206Z,4.85
2019-03-18T10:27:20.546Z,7.15
2019-03-18T10:28:27.267Z,10.38
2019-03-18T10:29:48.059Z,6.12
2019-03-18T10:30:57.310Z,6.00
2019-03-18T10:32:02.928Z,9.13
2019-03-18T10:33:09.155Z,7.92
2019-03-18T10:34:14.686Z,5.15
2019-03-18T10:35:20.745Z,5.97
2019-03-18T10:36:26.997Z,6.22
2019-03-18T10:37:32.905Z,7.17
2019-03-18T10:38:46.025Z,7.45
2019-03-18T10:39:58.192Z,6.30
2019-03-18T10:41:03.882Z,7.97
2019-03-18T10:42:09.417Z,7.72
2019-03-18T10:43:13.984Z,5.62
2019-03-18T10:44:24.664Z,11.80
2019-03-18T10:45:29.032Z,5.78
2019-03-18T10:46:33.334Z,7.53
2019-03-18T10:47:37.648Z,5.90
2019-03-18T10:48:43.597Z,7.37
2019-03-18T10:49:52.946Z,6.12
2019-03-18T10:50:58.168Z,4.85
2019-03-18T10:52:02.427Z,7.67
2019-03-18T10:53:10.593Z,6.78
2019-03-18T10:54:30.111Z,5.30
2019-03-18T10:55:26.106Z,5.45
2019-03-18T10:56:32.792Z,9.08
2019-03-18T10:57:51.544Z,4.97
2019-03-18T10:58:49.806Z,6.47
2019-03-18T11:00:01.144Z,8.08
2019-03-18T11:01:05.182Z,10.78
2019-03-18T11:02:16.147Z,7.70
2019-03-18T11:03:18.142Z,7.92
2019-03-18T11:04:26.666Z,9.83
2019-03-18T11:05:33.810Z,12.98
2019-03-18T11:06:45.668Z,12.07
2019-03-18T11:07:59.293Z,9.10
2019-03-18T11:09:01.319Z,8.48
2019-03-18T11:10:15.694Z,7.87
2019-03-18T11:11:31.048Z,9.03
2019-03-18T11:12:29.653Z,8.58
2019-03-18T11:13:35.478Z,69.67
2019-03-18T11:14:42.035Z,14.70
2019-03-18T11:15:51.586Z,5.92
2019-03-18T11:16:58.648Z,6.60
2019-03-18T11:18:09.710Z,8.18
2019-03-18T11:19:17.006Z,68.62
2019-03-18T11:20:24.903Z,13.48
2019-03-18T11:21:33.797Z,12.07
2019-03-18T11:22:39.045Z,9.98
2019-03-18T11:23:46.929Z,4.42
2019-03-18T11:25:06.177Z,9.98
2019-03-18T11:26:13.364Z,5.95
2019-03-18T11:27:28.820Z,6.80
2019-03-18T11:28:40.871Z,6.85
2019-03-18T11:29:57.004Z,7.08
2019-03-18T11:30:53.230Z,10.20
2019-03-18T11:32:08.066Z,7.30
2019-03-18T11:33:12.106Z,8.28
2019-03-18T11:34:19.056Z,11.33
2019-03-18T11:35:31.437Z,9.00
2019-03-18T11:36:36.273Z,8.90
2019-03-18T11:37:43.843Z,8.20
2019-03-18T11:38:53.112Z,11.70
2019-03-18T11:42:37.662Z,4.92
2019-03-18T11:42:44.358Z,10.28
2019-03-18T11:43:42.886Z,5.70
2019-03-18T11:44:48.670Z,9.13
2019-03-18T11:46:08.297Z,8.63
2019-03-18T11:47:18.492Z,11.38
2019-03-18T11:48:30.081Z,30.95
2019-03-18T11:49:39.837Z,9.73
2019-03-18T11:51:03.263Z,6.97
2019-03-18T11:52:10.790Z,10.48
2019-03-18T11:53:22.645Z,5.62
2019-03-18T11:54:29.703Z,4.17
2019-03-18T11:55:44.302Z,8.40
2019-03-18T11:56:47.448Z,6.47
2019-03-18T11:58:03.156Z,6.83
2019-03-18T11:59:06.118Z,25.88
2019-03-18T12:00:16.654Z,12.60
2019-03-18T12:06:21.362Z,7.67
2019-03-18T12:07:51.212Z,6.58
2019-03-18T12:08:46.450Z,7.42
2019-03-18T12:09:51.244Z,12.68
2019-03-18T12:10:57.153Z,5.20
2019-03-18T12:12:02.913Z,8.43
2019-03-18T12:13:12.916Z,6.80
2019-03-18T12:14:20.558Z,8.50
2019-03-18T12:15:30.316Z,6.83
2019-03-18T12:56:56.291Z,6.05
2019-03-18T13:01:48.632Z,9.18
2019-03-18T13:23:34.179Z,5.90
2019-03-18T13:24:55.189Z,7.80
2019-03-18T13:26:10.449Z,6.67
2019-03-18T13:31:23.286Z,7.70
2019-03-18T13:32:37.725Z,6.25
2019-03-18T13:35:12.761Z,13.08
2019-03-18T13:36:18.253Z,7.75
2019-03-18T13:37:22.499Z,5.50
2019-03-18T13:38:28.346Z,8.40
2019-03-18T13:39:34.867Z,6.37
2019-03-18T13:40:40.747Z,5.75
2019-03-18T13:41:45.763Z,7.55
2019-03-18T13:42:52.677Z,10.05
2019-03-18T13:44:15.980Z,21.48
2019-03-18T13:45:26.535Z,12.25
2019-03-18T13:47:25.350Z,9.58
2019-03-18T13:49:23.696Z,10.88
2019-03-18T13:50:31.363Z,8.25
2019-03-18T13:51:38.569Z,11.05
2019-03-18T13:53:22.405Z,7.05
2019-03-18T13:54:04.173Z,8.43
2019-03-18T13:55:18.592Z,4.83
2019-03-18T13:57:48.424Z,8.10
2019-03-18T13:58:54.105Z,6.92
2019-03-18T14:00:06.971Z,5.42
2019-03-18T14:01:11.974Z,11.35
2019-03-18T14:02:28.022Z,6.75
2019-03-18T14:03:33.963Z,7.92
2019-03-18T14:04:39.395Z,7.72
2019-03-18T14:05:57.217Z,7.78
2019-03-18T14:08:52.201Z,11.00
2019-03-18T14:13:08.087Z,9.88
2019-03-18T14:16:58.793Z,11.43
2019-03-18T14:18:24.962Z,7.15
2019-03-18T14:19:48.722Z,8.68
2019-03-18T14:21:03.169Z,6.83
2019-03-18T14:22:07.413Z,6.97
2019-03-18T14:26:44.678Z,6.17
2019-03-18T14:27:43.715Z,5.97
2019-03-18T14:28:43.236Z,5.37
2019-03-18T14:30:57.691Z,8.38
2019-03-18T14:32:08.035Z,9.65
2019-03-18T14:35:52.596Z,7.42
2019-03-18T14:36:20.420Z,10.85
2019-03-18T14:36:58.775Z,6.97
2019-03-18T14:39:20.366Z,8.60
2019-03-18T14:48:34.871Z,8.50
2019-03-18T14:49:31.232Z,5.12
2019-03-18T14:50:45.237Z,6.37
2019-03-18T15:00:25.322Z,6.65
2019-03-18T15:03:55.291Z,8.08
2019-03-18T15:08:19.213Z,4.97
2019-03-18T15:11:07.046Z,7.50
2019-03-18T15:11:55.729Z,6.33
2019-03-18T15:16:45.706Z,7.03
2019-03-18T15:24:03.404Z,5.97
2019-03-18T15:24:47.374Z,6.92
2019-03-18T15:33:20.445Z,6.25
2019-03-18T15:36:28.280Z,5.28
2019-03-18T15:37:00.057Z,5.53
2019-03-18T15:38:41.905Z,6.10
2019-03-18T15:39:39.637Z,6.35
2019-03-18T15:44:20.247Z,5.65
2019-03-18T15:47:03.838Z,3.83
2019-03-18T15:50:07.957Z,2.85
2019-03-18T15:51:10.979Z,4.87
2019-03-18T15:52:33.685Z,8.00
2019-03-18T15:53:41.053Z,9.58
2019-03-18T15:54:53.946Z,3.62
2019-03-18T15:57:29.498Z,3.22
2019-03-18T15:57:40.715Z,4.58
2019-03-18T16:00:29.526Z,4.45
2019-03-18T16:04:40.349Z,4.58
2019-03-18T16:07:40.132Z,6.67
2019-03-18T16:08:53.036Z,4.70
2019-03-18T16:11:55.334Z,5.37
2019-03-18T16:14:33.445Z,7.20
2019-03-18T16:22:05.210Z,4.53
2019-03-18T16:24:18.671Z,8.73
2019-03-18T16:26:18.685Z,7.35
2019-03-18T16:26:56.278Z,7.80
2019-03-18T16:28:55.996Z,6.03
2019-03-18T16:31:14.885Z,6.47
2019-03-18T16:34:11.319Z,5.90
2019-03-18T16:36:22.541Z,6.85
2019-03-18T16:37:39.653Z,9.73
2019-03-18T16:40:44.960Z,10.13
2019-03-18T16:45:49.425Z,19.52
2019-03-18T16:47:27.316Z,10.25
2019-03-18T16:58:33.553Z,7.83
2019-03-18T17:00:35.388Z,5.72
2019-03-18T17:00:42.948Z,5.00
2019-03-18T17:01:53.838Z,5.40
2019-03-18T17:03:10.018Z,10.38
2019-03-18T17:05:05.695Z,7.03
2019-03-18T17:06:54.147Z,6.45
2019-03-18T17:09:02.273Z,8.48
2019-03-18T17:11:14.924Z,10.35
2019-03-18T17:16:52.886Z,8.20
2019-03-18T17:19:08.535Z,8.63
2019-03-18T17:20:16.691Z,11.22
2019-03-18T17:47:33.049Z,9.53
2019-03-18T17:48:45.844Z,10.18
2019-03-18T17:49:55.479Z,7.42
2019-03-18T17:54:36.518Z,9.08
2019-03-18T17:57:13.906Z,12.10
2019-03-18T18:05:02.473Z,10.98
2019-03-18T18:06:05.558Z,10.53
2019-03-18T18:07:22.317Z,9.60
2019-03-18T18:08:21.021Z,14.00
2019-03-18T18:09:33.842Z,13.60
2019-03-18T18:10:45.114Z,16.45
2019-03-18T18:13:19.491Z,13.13
2019-03-18T18:19:15.192Z,14.03
2019-03-18T18:20:56.240Z,15.38
2019-03-18T18:21:57.711Z,13.90
2019-03-18T18:23:14.414Z,12.93
2019-03-18T18:25:37.712Z,14.10
2019-03-18T18:26:51.272Z,14.47
2019-03-18T18:28:08.370Z,12.05
2019-03-18T18:30:57.257Z,13.48
2019-03-18T18:31:50.658Z,16.00
2019-03-18T18:32:57.975Z,12.35
2019-03-18T18:34:09.195Z,14.18
2019-03-18T18:36:31.451Z,16.40
2019-03-18T18:37:37.343Z,17.05
2019-03-18T18:38:41.711Z,15.18
2019-03-18T18:41:26.588Z,14.03
2019-03-18T18:42:39.156Z,14.87
2019-03-18T18:44:09.385Z,14.75
2019-03-18T18:45:12.791Z,13.78
2019-03-18T18:46:21.308Z,15.72
2019-03-18T18:47:30.809Z,17.55
2019-03-18T18:48:48.208Z,15.15
2019-03-18T18:50:07.719Z,14.95
2019-03-18T18:51:28.657Z,16.48
2019-03-18T18:52:33.863Z,15.35
2019-03-18T18:53:46.841Z,14.75
2019-03-18T18:56:38.387Z,14.93
2019-03-18T18:58:56.984Z,16.27
2019-03-18T18:59:25.657Z,14.98
2019-03-18T19:00:35.970Z,15.50
2019-03-18T19:06:16.987Z,12.43
2019-03-18T19:07:23.855Z,14.10
2019-03-18T19:08:37.891Z,16.55
2019-03-18T19:09:45.712Z,14.53
2019-03-18T19:11:03.058Z,13.70
2019-03-18T19:12:08.648Z,12.70
2019-03-18T19:13:23.916Z,14.58
2019-03-18T19:14:49.638Z,15.23
2019-03-18T19:15:46.620Z,13.38
2019-03-18T19:17:03.759Z,14.40
2019-03-18T19:20:48.037Z,14.68
2019-03-18T19:21:09.548Z,17.95
2019-03-18T19:22:33.487Z,19.73
2019-03-18T19:26:11.109Z,18.30
2019-03-18T19:26:47.056Z,15.10
2019-03-18T19:51:02.382Z,17.23
2019-03-18T19:56:26.195Z,16.40
2019-03-18T19:57:39.413Z,16.82
2019-03-18T19:59:49.791Z,16.35
2019-03-18T20:04:19.532Z,15.83
2019-03-18T20:05:29.063Z,20.57
2019-03-18T20:06:34.436Z,15.93
2019-03-18T20:07:38.812Z,18.37
2019-03-18T20:08:43.587Z,18.00
2019-03-18T20:09:49.699Z,19.73
2019-03-18T20:11:02.077Z,18.60
2019-03-18T20:12:05.871Z,18.20
2019-03-18T20:13:42.024Z,18.90
2019-03-18T20:15:07.227Z,23.07
2019-03-18T20:17:10.570Z,18.40
2019-03-18T20:20:42.507Z,21.93
2019-03-18T20:21:47.206Z,20.10
2019-03-18T20:22:51.482Z,21.90
2019-03-18T20:24:01.063Z,19.48
2019-03-18T20:25:03.271Z,21.00
2019-03-18T20:26:11.500Z,21.23
2019-03-18T20:27:17.235Z,21.52
2019-03-18T20:28:22.992Z,22.73
2019-03-18T20:29:27.127Z,35.80
2019-03-18T20:30:33.975Z,25.97
2019-03-18T20:31:38.237Z,31.57
2019-03-18T20:32:43.987Z,25.75
2019-03-18T20:33:52.731Z,25.92
2019-03-18T20:34:56.995Z,22.80
2019-03-18T20:36:01.278Z,24.57
2019-03-18T20:37:06.561Z,21.52
2019-03-18T20:38:10.760Z,20.75
2019-03-18T20:39:16.220Z,21.50
2019-03-18T20:40:20.610Z,18.55
2019-03-18T20:41:24.831Z,20.17
2019-03-18T20:42:28.978Z,25.60
2019-03-18T20:43:33.390Z,20.55
2019-03-18T20:44:44.128Z,21.00
2019-03-18T20:45:48.376Z,25.70
2019-03-18T20:46:52.734Z,26.48
2019-03-18T20:47:58.102Z,27.40
2019-03-18T20:49:02.304Z,21.70
2019-03-18T20:50:12.034Z,21.52
2019-03-18T20:51:16.205Z,21.95
2019-03-18T20:52:20.453Z,24.32
2019-03-18T20:53:26.136Z,23.55
2019-03-18T20:54:31.937Z,23.02